createdAt,value
2019-05-26T00:01:18.372Z,6.78
2019-05-26T00:03:45.003Z,7.53
2019-05-26T00:06:11.720Z,7.20
2019-05-26T00:08:38.392Z,7.20
2019-05-26T00:11:04.796Z,7.55
2019-05-26T00:13:31.097Z,8.73
2019-05-26T00:15:57.571Z,9.15
2019-05-26T00:18:24.137Z,8.98
2019-05-26T00:20:50.837Z,10.13
2019-05-26T00:23:17.205Z,9.80
2019-05-26T00:25:44.661Z,10.40
2019-05-26T00:28:11.206Z,10.95
2019-05-26T00:30:37.820Z,12.35
2019-05-26T00:33:04.407Z,12.60
2019-05-26T00:35:30.790Z,14.53
2019-05-26T00:37:57.370Z,16.17
2019-05-26T00:40:24.151Z,17.65
2019-05-26T00:42:50.867Z,17.80
2019-05-26T00:45:17.747Z,18.35
2019-05-26T00:47:44.376Z,19.05
2019-05-26T00:50:11.444Z,19.73
2019-05-26T00:52:38.140Z,19.52
2019-05-26T00:55:06.837Z,17.77
2019-05-26T00:57:33.329Z,15.85
2019-05-26T00:59:59.825Z,16.70
2019-05-26T01:02:26.308Z,17.23
2019-05-26T01:04:53.013Z,16.57
2019-05-26T01:07:19.714Z,13.55
2019-05-26T01:09:46.391Z,12.55
2019-05-26T01:12:12.904Z,10.70
2019-05-26T01:14:39.559Z,11.10
2019-05-26T01:17:06.363Z,11.05
2019-05-26T01:19:33.044Z,14.23
2019-05-26T01:21:59.656Z,15.28
2019-05-26T01:24:26.212Z,16.42
2019-05-26T01:26:52.703Z,14.47
2019-05-26T01:29:19.372Z,13.83
2019-05-26T01:31:45.871Z,13.72
2019-05-26T01:34:12.588Z,14.18
2019-05-26T01:36:39.234Z,14.15
2019-05-26T01:39:06.660Z,14.93
2019-05-26T01:41:33.321Z,16.27
2019-05-26T01:44:00.024Z,16.42
2019-05-26T01:46:26.582Z,15.78
2019-05-26T01:48:53.169Z,15.63
2019-05-26T01:51:19.659Z,15.45
2019-05-26T01:53:46.373Z,15.95
2019-05-26T01:56:12.829Z,16.07
2019-05-26T01:58:39.390Z,14.83
2019-05-26T02:01:05.917Z,13.30
2019-05-26T02:03:32.389Z,12.63
2019-05-26T02:05:58.915Z,13.08
2019-05-26T02:08:38.415Z,12.15
2019-05-26T02:10:53.782Z,10.28
2019-05-26T02:13:20.335Z,10.13
2019-05-26T02:15:46.778Z,9.58
2019-05-26T02:18:14.718Z,9.48
2019-05-26T02:20:41.276Z,9.13
2019-05-26T02:23:07.952Z,9.00
2019-05-26T02:25:34.654Z,8.98
2019-05-26T02:28:01.411Z,8.50
2019-05-26T02:30:28.061Z,8.38
2019-05-26T02:32:54.567Z,8.78
2019-05-26T02:35:21.387Z,7.92
2019-05-26T02:37:48.220Z,8.20
2019-05-26T02:40:15.973Z,9.28
2019-05-26T02:42:42.572Z,8.53
2019-05-26T02:45:15.652Z,9.13
2019-05-26T02:47:44.162Z,9.73
2019-05-26T02:50:11.940Z,8.90
2019-05-26T02:52:38.728Z,8.68
2019-05-26T02:55:06.100Z,9.00
2019-05-26T02:57:32.820Z,8.40
2019-05-26T02:59:59.541Z,8.50
2019-05-26T03:02:26.305Z,8.48
2019-05-26T03:04:53.023Z,8.80
2019-05-26T03:07:21.824Z,9.28
2019-05-26T03:09:50.011Z,9.23
2019-05-26T03:12:17.655Z,8.98
2019-05-26T03:14:45.855Z,10.05
2019-05-26T03:17:15.429Z,10.08
2019-05-26T03:19:44.657Z,9.88
2019-05-26T03:22:14.975Z,10.08
2019-05-26T03:24:42.426Z,10.58
2019-05-26T03:27:09.199Z,11.35
2019-05-26T03:29:36.589Z,12.30
2019-05-26T03:32:03.390Z,11.28
2019-05-26T03:34:30.085Z,11.65
2019-05-26T03:36:56.713Z,12.37
2019-05-26T03:39:42.375Z,12.58
2019-05-26T03:41:51.523Z,13.25
2019-05-26T03:44:18.055Z,12.78
2019-05-26T03:46:44.720Z,12.07
2019-05-26T03:49:11.179Z,13.80
2019-05-26T03:51:37.615Z,14.33
2019-05-26T03:54:04.367Z,13.72
2019-05-26T03:56:31.149Z,13.60
2019-05-26T03:58:57.671Z,13.30
2019-05-26T04:01:24.101Z,13.95
2019-05-26T04:03:50.678Z,15.30
2019-05-26T04:06:17.354Z,15.35
2019-05-26T04:08:43.763Z,15.03
2019-05-26T04:11:11.521Z,15.93
2019-05-26T04:13:38.196Z,17.55
2019-05-26T04:16:04.827Z,16.75
2019-05-26T04:18:31.490Z,16.77
2019-05-26T04:20:58.162Z,16.35
2019-05-26T04:23:24.552Z,16.30
2019-05-26T04:25:51.009Z,16.57
2019-05-26T04:28:18.691Z,15.50
2019-05-26T04:30:45.316Z,15.18
2019-05-26T04:33:12.133Z,16.93
2019-05-26T04:35:38.721Z,14.93
2019-05-26T04:38:05.451Z,15.35
2019-05-26T04:40:32.237Z,16.25
2019-05-26T04:42:58.605Z,16.23
2019-05-26T04:45:25.182Z,16.00
2019-05-26T04:47:51.649Z,16.40
2019-05-26T04:50:18.350Z,16.75
2019-05-26T04:53:04.466Z,17.60
2019-05-26T04:55:13.609Z,16.90
2019-05-26T04:57:40.022Z,17.05
2019-05-26T05:00:06.893Z,16.02
2019-05-26T05:02:33.810Z,16.85
2019-05-26T05:05:00.380Z,16.45
2019-05-26T05:07:28.405Z,17.15
2019-05-26T05:09:55.130Z,15.72
2019-05-26T05:12:21.638Z,17.07
2019-05-26T05:14:48.056Z,16.48
2019-05-26T05:17:14.858Z,16.65
2019-05-26T05:19:41.417Z,15.70
2019-05-26T05:22:07.970Z,17.40
2019-05-26T05:24:34.678Z,17.07
2019-05-26T05:27:01.113Z,17.42
2019-05-26T05:29:27.882Z,16.65
2019-05-26T05:31:54.944Z,16.97
2019-05-26T05:34:21.558Z,17.42
2019-05-26T05:36:48.244Z,17.60
2019-05-26T05:39:14.850Z,17.12
2019-05-26T05:41:41.340Z,16.30
2019-05-26T05:44:07.783Z,16.40
2019-05-26T05:46:34.386Z,16.73
2019-05-26T05:49:00.863Z,15.23
2019-05-26T05:51:28.619Z,16.40
2019-05-26T05:53:55.207Z,16.07
2019-05-26T05:56:21.860Z,16.12
2019-05-26T05:58:48.451Z,16.25
2019-05-26T06:01:14.979Z,16.70
2019-05-26T06:03:41.524Z,17.20
2019-05-26T06:06:08.168Z,16.73
2019-05-26T06:08:34.581Z,16.93
2019-05-26T06:11:14.987Z,16.77
2019-05-26T06:13:30.682Z,20.75
2019-05-26T06:15:57.172Z,21.42
2019-05-26T06:18:23.988Z,18.57
2019-05-26T06:20:50.508Z,25.20
2019-05-26T06:23:17.169Z,19.80
2019-05-26T06:25:43.849Z,18.15
2019-05-26T06:28:10.576Z,18.70
2019-05-26T06:30:37.168Z,19.62
2019-05-26T06:33:03.766Z,18.48
2019-05-26T06:35:32.628Z,17.17
2019-05-26T06:37:58.488Z,17.20
2019-05-26T06:40:24.847Z,16.17
2019-05-26T06:42:51.450Z,15.32
2019-05-26T06:45:18.408Z,17.00
2019-05-26T06:47:45.001Z,17.98
2019-05-26T06:50:12.208Z,18.23
2019-05-26T06:52:38.935Z,17.50
2019-05-26T06:55:06.039Z,16.25
2019-05-26T06:57:32.679Z,17.73
2019-05-26T06:59:59.234Z,16.90
2019-05-26T07:02:34.291Z,16.10
2019-05-26T07:04:56.692Z,16.93
2019-05-26T07:07:23.221Z,15.03
2019-05-26T07:09:49.837Z,14.83
2019-05-26T07:12:16.464Z,13.45
2019-05-26T07:14:43.212Z,13.30
2019-05-26T07:17:09.714Z,12.60
2019-05-26T07:19:36.421Z,10.58
2019-05-26T07:22:03.032Z,10.18
2019-05-26T07:24:30.957Z,9.60
2019-05-26T07:26:57.388Z,9.83
2019-05-26T07:29:23.909Z,8.98
2019-05-26T07:31:50.467Z,10.60
2019-05-26T07:34:18.108Z,8.50
2019-05-26T07:36:44.798Z,7.95
2019-05-26T07:39:11.425Z,7.33
2019-05-26T07:41:37.842Z,8.13
2019-05-26T07:44:04.583Z,8.10
2019-05-26T07:46:30.921Z,7.78
2019-05-26T07:48:57.342Z,6.80
2019-05-26T07:51:23.852Z,6.15
2019-05-26T07:53:50.348Z,6.50
2019-05-26T07:56:16.789Z,8.90
2019-05-26T07:58:43.467Z,7.40
2019-05-26T08:01:10.066Z,7.55
2019-05-26T08:03:36.542Z,6.37
2019-05-26T08:06:03.114Z,6.60
2019-05-26T08:08:29.719Z,6.35
2019-05-26T08:10:56.192Z,6.40
2019-05-26T08:13:22.839Z,5.92
2019-05-26T08:15:49.322Z,6.00
2019-05-26T08:18:16.381Z,5.78
2019-05-26T08:20:42.890Z,5.92
2019-05-26T08:23:09.424Z,5.80
2019-05-26T08:25:35.942Z,5.60
2019-05-26T08:28:02.626Z,5.47
2019-05-26T08:30:29.406Z,5.55
2019-05-26T08:32:55.974Z,5.97
2019-05-26T08:35:22.562Z,5.25
2019-05-26T08:37:48.968Z,5.72
2019-05-26T08:40:18.355Z,5.15
2019-05-26T08:42:49.279Z,4.78
2019-05-26T08:45:21.391Z,5.22
2019-05-26T08:47:46.658Z,5.22
2019-05-26T08:50:13.428Z,6.78
2019-05-26T08:52:40.043Z,4.83
2019-05-26T08:55:06.884Z,5.00
2019-05-26T08:57:33.562Z,4.47
2019-05-26T09:00:00.056Z,4.60
2019-05-26T09:02:26.603Z,4.28
2019-05-26T09:04:53.114Z,4.60
2019-05-26T09:07:19.693Z,4.58
2019-05-26T09:09:46.228Z,4.42
2019-05-26T09:12:12.501Z,4.60
2019-05-26T09:14:38.945Z,4.55
2019-05-26T09:17:05.649Z,4.55
2019-05-26T09:19:31.976Z,4.17
2019-05-26T09:21:59.671Z,4.08
2019-05-26T09:24:26.325Z,4.47
2019-05-26T09:26:52.984Z,3.70
2019-05-26T09:29:19.500Z,4.00
2019-05-26T09:31:46.067Z,3.65
2019-05-26T09:34:12.486Z,3.75
2019-05-26T09:36:39.049Z,3.72
2019-05-26T09:39:06.474Z,3.77
2019-05-26T09:41:33.170Z,3.37
2019-05-26T09:43:59.655Z,3.12
2019-05-26T09:46:26.074Z,3.67
2019-05-26T09:48:53.823Z,3.35
2019-05-26T09:51:20.473Z,3.70
2019-05-26T09:54:00.729Z,3.22
2019-05-26T09:56:15.530Z,3.33
2019-05-26T09:58:42.972Z,2.95
2019-05-26T10:01:09.649Z,3.12
2019-05-26T10:03:36.215Z,3.55
2019-05-26T10:06:03.862Z,3.67
2019-05-26T10:08:30.713Z,3.62
2019-05-26T10:10:57.277Z,3.42
2019-05-26T10:13:31.799Z,3.25
2019-05-26T10:15:52.436Z,10.00
2019-05-26T10:18:18.941Z,13.08
2019-05-26T10:20:45.534Z,17.50
2019-05-26T10:23:12.284Z,10.35
2019-05-26T10:25:38.980Z,4.80
2019-05-26T10:28:05.497Z,6.60
2019-05-26T10:30:31.933Z,4.95
2019-05-26T10:32:58.499Z,6.92
2019-05-26T10:35:24.964Z,4.83
2019-05-26T10:37:51.703Z,3.80
2019-05-26T10:40:18.305Z,4.42
2019-05-26T10:42:44.947Z,3.90
2019-05-26T10:45:13.656Z,4.40
2019-05-26T10:47:40.309Z,5.72
2019-05-26T10:50:08.562Z,4.20
2019-05-26T10:52:35.283Z,3.30
2019-05-26T10:55:06.390Z,3.67
2019-05-26T10:57:33.091Z,6.30
2019-05-26T10:59:59.653Z,4.37
2019-05-26T11:02:26.147Z,4.03
2019-05-26T11:04:52.594Z,4.15
2019-05-26T11:07:19.180Z,4.00
2019-05-26T11:09:45.687Z,4.20
2019-05-26T11:12:12.197Z,7.92
2019-05-26T11:14:38.894Z,5.70
2019-05-26T11:17:05.375Z,4.92
2019-05-26T11:19:31.890Z,5.05
2019-05-26T11:21:59.368Z,6.37
2019-05-26T11:24:26.135Z,5.53
2019-05-26T11:26:52.686Z,5.00
2019-05-26T11:29:19.177Z,4.33
2019-05-26T11:31:45.706Z,4.78
2019-05-26T11:34:12.130Z,4.80
2019-05-26T11:36:38.678Z,4.70
2019-05-26T11:39:06.351Z,4.37
2019-05-26T11:41:33.071Z,4.10
2019-05-26T11:43:59.517Z,4.03
2019-05-26T11:46:26.384Z,6.58
2019-05-26T11:48:52.859Z,4.97
2019-05-26T11:51:19.355Z,4.42
2019-05-26T11:53:45.792Z,3.55
2019-05-26T11:56:12.281Z,4.50
2019-05-26T11:58:38.794Z,4.08
2019-05-26T12:01:05.350Z,3.87
2019-05-26T12:03:31.919Z,3.80
2019-05-26T12:05:58.685Z,7.20
2019-05-26T12:08:25.259Z,4.60
2019-05-26T12:10:51.876Z,3.95
2019-05-26T12:13:18.503Z,3.90
2019-05-26T12:15:45.003Z,3.83
2019-05-26T12:18:11.562Z,3.83
2019-05-26T12:20:38.031Z,5.95
2019-05-26T12:23:04.712Z,8.73
2019-05-26T12:25:31.177Z,4.90
2019-05-26T12:27:57.767Z,3.92
2019-05-26T12:30:24.525Z,3.75
2019-05-26T12:32:51.173Z,3.80
2019-05-26T12:35:17.935Z,4.00
2019-05-26T12:37:44.519Z,4.00
2019-05-26T12:40:13.225Z,3.50
2019-05-26T12:42:39.895Z,4.80
2019-05-26T12:45:08.018Z,4.87
2019-05-26T12:47:34.735Z,4.20
2019-05-26T12:50:01.477Z,4.08
2019-05-26T12:52:28.050Z,4.00
2019-05-26T12:54:55.773Z,3.65
2019-05-26T12:57:22.226Z,4.50
2019-05-26T12:59:48.690Z,4.37
2019-05-26T13:02:15.115Z,4.67
2019-05-26T13:04:41.702Z,4.42
2019-05-26T13:07:08.355Z,4.62
2019-05-26T13:09:35.245Z,4.72
2019-05-26T13:12:01.897Z,6.83
2019-05-26T13:14:28.502Z,4.80
2019-05-26T13:16:55.100Z,4.70
2019-05-26T13:19:21.516Z,5.53
2019-05-26T13:21:48.100Z,5.10
2019-05-26T13:24:14.824Z,5.03
2019-05-26T13:26:41.456Z,4.92
2019-05-26T13:29:07.856Z,5.05
2019-05-26T13:31:34.233Z,4.50
2019-05-26T13:34:00.830Z,5.08
2019-05-26T13:36:27.490Z,11.63
2019-05-26T13:38:54.067Z,5.10
2019-05-26T13:41:20.747Z,5.25
2019-05-26T13:43:47.207Z,5.17
2019-05-26T13:46:13.822Z,4.33
2019-05-26T13:48:40.467Z,4.83
2019-05-26T13:51:07.165Z,4.60
2019-05-26T13:53:33.642Z,4.50
2019-05-26T13:56:00.160Z,4.78
2019-05-26T13:58:26.759Z,5.25
2019-05-26T14:00:53.276Z,4.72
2019-05-26T14:03:19.959Z,4.50
2019-05-26T14:05:46.522Z,4.87
2019-05-26T14:08:13.247Z,4.80
2019-05-26T14:10:39.869Z,5.55
2019-05-26T14:13:06.828Z,5.12
2019-05-26T14:15:38.973Z,4.70
2019-05-26T14:18:04.544Z,3.98
2019-05-26T14:20:36.122Z,4.55
2019-05-26T14:23:03.807Z,4.10
2019-05-26T14:25:30.347Z,3.90
2019-05-26T14:27:56.979Z,4.65
2019-05-26T14:30:23.718Z,4.03
2019-05-26T14:32:50.193Z,4.10
2019-05-26T14:35:16.730Z,3.52
2019-05-26T14:37:43.116Z,3.65
2019-05-26T14:40:10.079Z,3.47
2019-05-26T14:42:36.559Z,2.65
2019-05-26T14:45:06.748Z,2.40
2019-05-26T14:47:33.182Z,2.22
2019-05-26T14:49:59.730Z,2.40
2019-05-26T14:52:26.190Z,2.17
2019-05-26T14:54:52.620Z,1.85
2019-05-26T14:57:19.379Z,1.90
2019-05-26T14:59:45.941Z,1.82
2019-05-26T15:02:12.457Z,1.85
2019-05-26T15:04:39.084Z,1.85
2019-05-26T15:07:05.684Z,1.92
2019-05-26T15:09:32.376Z,2.50
2019-05-26T15:11:58.907Z,2.20
2019-05-26T15:14:25.361Z,2.08
2019-05-26T15:16:51.954Z,2.62
2019-05-26T15:19:18.473Z,2.17
2019-05-26T15:21:44.911Z,2.10
2019-05-26T15:24:11.354Z,1.60
2019-05-26T15:26:38.009Z,1.65
2019-05-26T15:29:04.770Z,1.65
2019-05-26T15:31:32.527Z,2.20
2019-05-26T15:33:59.256Z,1.65
2019-05-26T15:36:25.607Z,1.77
2019-05-26T15:38:52.165Z,2.10
2019-05-26T15:41:18.754Z,1.90
2019-05-26T15:43:45.384Z,2.58
2019-05-26T15:46:24.259Z,2.52
2019-05-26T15:48:40.446Z,2.80
2019-05-26T15:51:06.822Z,2.30
2019-05-26T15:53:33.401Z,3.20
2019-05-26T15:55:59.978Z,3.17
2019-05-26T15:58:26.672Z,2.75
2019-05-26T16:00:53.397Z,5.80
2019-05-26T16:03:20.073Z,4.95
2019-05-26T16:05:46.809Z,3.12
2019-05-26T16:08:13.350Z,3.27
2019-05-26T16:10:40.018Z,2.92
2019-05-26T16:13:06.581Z,3.25
2019-05-26T16:15:33.300Z,2.92
2019-05-26T16:17:59.922Z,3.10
2019-05-26T16:20:26.231Z,2.92
2019-05-26T16:22:52.765Z,2.62
2019-05-26T16:25:19.181Z,3.17
2019-05-26T16:27:45.831Z,3.40
2019-05-26T16:30:13.389Z,3.40
2019-05-26T16:32:39.985Z,2.70
2019-05-26T16:35:07.078Z,2.70
2019-05-26T16:37:33.670Z,2.72
2019-05-26T16:40:00.110Z,4.53
2019-05-26T16:42:26.741Z,5.35
2019-05-26T16:44:53.490Z,2.87
2019-05-26T16:47:19.985Z,3.50
2019-05-26T16:49:46.433Z,2.75
2019-05-26T16:52:12.997Z,3.17
2019-05-26T16:54:39.649Z,2.45
2019-05-26T16:57:06.352Z,3.40
2019-05-26T16:59:32.990Z,2.90
2019-05-26T17:01:59.573Z,3.25
2019-05-26T17:04:26.095Z,2.95
2019-05-26T17:06:52.760Z,2.47
2019-05-26T17:09:19.368Z,3.67
2019-05-26T17:11:45.906Z,6.15
2019-05-26T17:14:12.313Z,5.85
2019-05-26T17:16:39.170Z,16.40
2019-05-26T17:19:05.987Z,10.65
2019-05-26T17:21:32.580Z,5.85
2019-05-26T17:23:59.053Z,4.25
2019-05-26T17:26:25.771Z,3.95
2019-05-26T17:28:52.112Z,3.98
2019-05-26T17:31:18.674Z,3.98
2019-05-26T17:33:45.457Z,3.45
2019-05-26T17:36:11.866Z,4.22
2019-05-26T17:38:38.386Z,3.72
2019-05-26T17:41:04.920Z,3.33
2019-05-26T17:43:31.379Z,4.15
2019-05-26T17:45:57.898Z,4.50
2019-05-26T17:48:24.503Z,3.98
2019-05-26T17:50:51.037Z,4.00
2019-05-26T17:53:17.556Z,3.83
2019-05-26T17:55:44.098Z,3.45
2019-05-26T17:58:10.805Z,3.58
2019-05-26T18:00:37.394Z,4.22
2019-05-26T18:03:03.924Z,4.10
2019-05-26T18:05:30.587Z,4.15
2019-05-26T18:07:57.227Z,4.00
2019-05-26T18:10:23.853Z,6.70
2019-05-26T18:12:50.403Z,4.28
2019-05-26T18:15:17.401Z,4.25
2019-05-26T18:17:47.512Z,4.85
2019-05-26T18:20:12.616Z,4.90
2019-05-26T18:22:39.186Z,5.45
2019-05-26T18:25:07.140Z,4.58
2019-05-26T18:27:33.819Z,4.45
2019-05-26T18:30:00.438Z,5.05
2019-05-26T18:32:27.066Z,4.30
2019-05-26T18:34:53.740Z,4.47
2019-05-26T18:37:20.454Z,4.03
2019-05-26T18:39:46.995Z,5.30
2019-05-26T18:42:15.502Z,3.50
2019-05-26T18:44:42.155Z,3.37
2019-05-26T18:47:08.928Z,3.70
2019-05-26T18:49:35.767Z,3.27
2019-05-26T18:52:02.598Z,3.27
2019-05-26T18:54:29.270Z,3.22
2019-05-26T18:56:55.822Z,3.52
2019-05-26T18:59:22.350Z,3.45
2019-05-26T19:01:48.994Z,3.37
2019-05-26T19:04:15.524Z,7.50
2019-05-26T19:06:42.330Z,5.45
2019-05-26T19:09:09.012Z,4.15
2019-05-26T19:11:36.144Z,3.67
2019-05-26T19:14:04.758Z,4.08
2019-05-26T19:16:31.383Z,4.95
2019-05-26T19:18:58.083Z,6.53
2019-05-26T19:21:24.721Z,4.70
2019-05-26T19:23:51.269Z,5.35
2019-05-26T19:26:18.021Z,6.87
2019-05-26T19:28:44.782Z,7.35
2019-05-26T19:31:11.340Z,18.15
2019-05-26T19:33:38.036Z,6.37
2019-05-26T19:36:09.057Z,6.20
2019-05-26T19:38:33.006Z,5.10
2019-05-26T19:40:59.747Z,5.03
2019-05-26T19:43:26.344Z,4.60
2019-05-26T19:45:53.094Z,5.20
2019-05-26T19:48:34.986Z,5.03
2019-05-26T19:50:49.266Z,4.85
2019-05-26T19:53:15.933Z,4.83
2019-05-26T19:55:42.671Z,4.95
2019-05-26T19:58:10.619Z,4.50
2019-05-26T20:00:37.216Z,4.55
2019-05-26T20:03:04.001Z,4.08
2019-05-26T20:05:30.461Z,4.00
2019-05-26T20:07:57.226Z,5.12
2019-05-26T20:10:24.207Z,4.92
2019-05-26T20:12:50.683Z,5.83
2019-05-26T20:15:18.994Z,5.58
2019-05-26T20:17:46.325Z,8.53
2019-05-26T20:20:14.408Z,7.00
2019-05-26T20:22:40.924Z,4.62
2019-05-26T20:25:08.028Z,7.15
2019-05-26T20:27:34.917Z,5.47
2019-05-26T20:30:01.490Z,4.80
2019-05-26T20:32:28.069Z,6.65
2019-05-26T20:34:54.764Z,5.83
2019-05-26T20:37:21.593Z,4.42
2019-05-26T20:39:48.549Z,4.47
2019-05-26T20:42:15.223Z,3.90
2019-05-26T20:44:41.870Z,4.10
2019-05-26T20:47:08.587Z,6.30
2019-05-26T20:49:44.908Z,5.40
2019-05-26T20:52:04.189Z,14.87
2019-05-26T20:54:30.907Z,9.50
2019-05-26T20:56:57.919Z,6.95
2019-05-26T20:59:24.541Z,5.30
2019-05-26T21:01:51.372Z,5.20
2019-05-26T21:04:18.112Z,6.12
2019-05-26T21:06:44.699Z,4.95
2019-05-26T21:09:11.679Z,4.87
2019-05-26T21:11:38.577Z,4.40
2019-05-26T21:14:05.272Z,4.00
2019-05-26T21:16:32.031Z,7.17
2019-05-26T21:18:58.456Z,5.97
2019-05-26T21:21:24.825Z,17.45
2019-05-26T21:23:51.454Z,13.05
2019-05-26T21:26:18.219Z,6.55
2019-05-26T21:28:44.842Z,4.80
2019-05-26T21:31:11.545Z,5.08
2019-05-26T21:33:38.205Z,4.80
2019-05-26T21:36:04.869Z,4.20
2019-05-26T21:38:31.500Z,4.28
2019-05-26T21:40:58.267Z,3.37
2019-05-26T21:43:25.794Z,3.60
2019-05-26T21:45:52.305Z,3.12
2019-05-26T21:48:19.857Z,3.62
2019-05-26T21:50:46.403Z,3.80
2019-05-26T21:53:13.184Z,3.83
2019-05-26T21:55:39.865Z,4.08
2019-05-26T21:58:06.519Z,3.55
2019-05-26T22:00:38.306Z,3.90
2019-05-26T22:03:05.644Z,3.40
2019-05-26T22:05:32.331Z,3.42
2019-05-26T22:07:58.813Z,3.47
2019-05-26T22:10:25.403Z,3.80
2019-05-26T22:12:52.118Z,3.55
2019-05-26T22:15:18.866Z,3.90
2019-05-26T22:17:45.438Z,3.50
2019-05-26T22:20:12.637Z,3.70
2019-05-26T22:22:39.134Z,3.55
2019-05-26T22:25:05.622Z,3.58
2019-05-26T22:27:32.168Z,4.22
2019-05-26T22:29:58.596Z,3.80
2019-05-26T22:32:25.151Z,3.42
2019-05-26T22:34:51.608Z,3.85
2019-05-26T22:37:18.384Z,3.98
2019-05-26T22:39:45.149Z,3.95
2019-05-26T22:42:11.680Z,3.83
2019-05-26T22:44:38.264Z,4.20
2019-05-26T22:47:04.900Z,4.12
2019-05-26T22:49:31.463Z,4.10
2019-05-26T22:51:58.051Z,4.53
2019-05-26T22:54:25.736Z,3.92
2019-05-26T22:56:52.256Z,4.20
2019-05-26T22:59:18.730Z,4.50
2019-05-26T23:01:45.402Z,4.05
2019-05-26T23:04:11.841Z,4.45
2019-05-26T23:06:38.255Z,4.37
2019-05-26T23:09:05.532Z,4.12
2019-05-26T23:11:32.022Z,4.15
2019-05-26T23:13:58.521Z,3.98
2019-05-26T23:16:25.026Z,4.12
2019-05-26T23:18:51.586Z,3.98
2019-05-26T23:21:17.978Z,4.10
2019-05-26T23:23:44.429Z,4.10
2019-05-26T23:26:10.977Z,4.28
2019-05-26T23:28:37.375Z,4.72
2019-05-26T23:31:03.905Z,4.83
2019-05-26T23:33:30.464Z,4.45
2019-05-26T23:35:57.129Z,4.42
2019-05-26T23:38:23.590Z,4.17
2019-05-26T23:40:50.182Z,4.60
2019-05-26T23:43:16.688Z,4.78
2019-05-26T23:45:43.247Z,4.35
2019-05-26T23:48:09.640Z,5.12
2019-05-26T23:50:36.287Z,4.67
2019-05-26T23:53:02.975Z,5.03
2019-05-26T23:55:29.443Z,4.75
2019-05-26T23:57:55.901Z,5.15
